sensor_id;sensor_type;location;lat;lon;timestamp;pressure;altitude;pressure_sealevel;temperature;humidity
10732;BME280;5417;42.686;23.244;2022-10-16T00:00:30;94916.50;;;11.11;72.51
10732;BME280;5417;42.686;23.244;2022-10-16T00:02:57;94930.47;;;11.10;72.25
10732;BME280;5417;42.686;23.244;2022-10-16T00:05:24;94936.88;;;11.05;72.38
10732;BME280;5417;42.686;23.244;2022-10-16T00:07:53;94932.00;;;11.01;72.02
10732;BME280;5417;42.686;23.244;2022-10-16T00:10:19;94939.81;;;11.01;72.25
10732;BME280;5417;42.686;23.244;2022-10-16T00:12:46;94943.47;;;10.98;72.07
10732;BME280;5417;42.686;23.244;2022-10-16T00:15:14;94944.44;;;10.97;71.97
10732;BME280;5417;42.686;23.244;2022-10-16T00:17:41;94945.50;;;10.95;71.84
10732;BME280;5417;42.686;23.244;2022-10-16T00:20:08;94941.22;;;10.94;71.89
10732;BME280;5417;42.686;23.244;2022-10-16T00:22:35;94939.66;;;10.91;72.38
10732;BME280;5417;42.686;23.244;2022-10-16T00:25:03;94945.09;;;10.88;72.12
10732;BME280;5417;42.686;23.244;2022-10-16T00:27:30;94943.53;;;10.86;72.35
10732;BME280;5417;42.686;23.244;2022-10-16T00:29:57;94934.50;;;10.79;72.46
10732;BME280;5417;42.686;23.244;2022-10-16T00:32:24;94951.78;;;10.80;72.72
10732;BME280;5417;42.686;23.244;2022-10-16T00:34:51;94951.91;;;10.78;72.74
10732;BME280;5417;42.686;23.244;2022-10-16T00:37:20;94947.03;;;10.73;72.61
10732;BME280;5417;42.686;23.244;2022-10-16T00:39:47;94959.22;;;10.73;73.00
10732;BME280;5417;42.686;23.244;2022-10-16T00:42:17;94959.34;;;10.71;72.84
10732;BME280;5417;42.686;23.244;2022-10-16T00:44:48;94949.16;;;10.68;73.04
10732;BME280;5417;42.686;23.244;2022-10-16T00:47:21;94947.59;;;10.66;72.91
10732;BME280;5417;42.686;23.244;2022-10-16T00:49:50;94945.84;;;10.66;72.72
10732;BME280;5417;42.686;23.244;2022-10-16T00:52:18;94948.66;;;10.63;72.92
10732;BME280;5417;42.686;23.244;2022-10-16T00:54:46;94950.44;;;10.63;73.06
10732;BME280;5417;42.686;23.244;2022-10-16T00:57:13;94943.56;;;10.62;72.97
10732;BME280;5417;42.686;23.244;2022-10-16T00:59:42;94948.78;;;10.62;72.93
10732;BME280;5417;42.686;23.244;2022-10-16T01:02:12;94948.06;;;10.60;73.14
10732;BME280;5417;42.686;23.244;2022-10-16T01:04:40;94944.72;;;10.58;73.29
10732;BME280;5417;42.686;23.244;2022-10-16T01:07:14;94942.97;;;10.58;73.46
10732;BME280;5417;42.686;23.244;2022-10-16T01:09:52;94950.16;;;10.55;73.07
10732;BME280;5417;42.686;23.244;2022-10-16T01:12:27;94946.94;;;10.51;73.06
10732;BME280;5417;42.686;23.244;2022-10-16T01:15:04;94957.59;;;10.48;73.22
10732;BME280;5417;42.686;23.244;2022-10-16T01:17:39;94952.50;;;10.47;72.79
10732;BME280;5417;42.686;23.244;2022-10-16T01:20:12;94958.53;;;10.47;73.24
10732;BME280;5417;42.686;23.244;2022-10-16T01:22:49;94951.66;;;10.46;72.77
10732;BME280;5417;42.686;23.244;2022-10-16T01:25:26;94946.56;;;10.45;73.09
10732;BME280;5417;42.686;23.244;2022-10-16T01:27:59;94936.28;;;10.43;73.35
10732;BME280;5417;42.686;23.244;2022-10-16T01:30:30;94937.22;;;10.42;73.34
10732;BME280;5417;42.686;23.244;2022-10-16T01:33:02;94937.22;;;10.42;73.23
10732;BME280;5417;42.686;23.244;2022-10-16T01:35:35;94938.03;;;10.42;73.60
10732;BME280;5417;42.686;23.244;2022-10-16T01:38:07;94954.78;;;10.38;73.07
10732;BME280;5417;42.686;23.244;2022-10-16T01:40:36;94952.50;;;10.34;73.39
10732;BME280;5417;42.686;23.244;2022-10-16T01:43:08;94949.19;;;10.32;73.28
10732;BME280;5417;42.686;23.244;2022-10-16T01:45:38;94952.94;;;10.28;73.11
10732;BME280;5417;42.686;23.244;2022-10-16T01:48:07;94958.16;;;10.28;73.35
10732;BME280;5417;42.686;23.244;2022-10-16T01:50:38;94959.94;;;10.27;73.69
10732;BME280;5417;42.686;23.244;2022-10-16T01:53:08;94960.16;;;10.24;73.32
10732;BME280;5417;42.686;23.244;2022-10-16T01:55:38;94968.91;;;10.23;73.28
10732;BME280;5417;42.686;23.244;2022-10-16T01:58:09;94967.22;;;10.22;73.53
10732;BME280;5417;42.686;23.244;2022-10-16T02:00:38;94962.13;;;10.21;73.45
10732;BME280;5417;42.686;23.244;2022-10-16T02:03:07;94967.41;;;10.19;73.76
10732;BME280;5417;42.686;23.244;2022-10-16T02:05:40;94962.44;;;10.16;73.06
10732;BME280;5417;42.686;23.244;2022-10-16T02:08:09;94964.31;;;10.14;73.38
10732;BME280;5417;42.686;23.244;2022-10-16T02:10:37;94968.47;;;10.17;73.56
10732;BME280;5417;42.686;23.244;2022-10-16T02:13:08;94978.97;;;10.15;73.56
10732;BME280;5417;42.686;23.244;2022-10-16T02:15:36;94975.34;;;10.18;73.12
10732;BME280;5417;42.686;23.244;2022-10-16T02:18:03;94980.84;;;10.13;73.40
10732;BME280;5417;42.686;23.244;2022-10-16T02:20:34;94972.75;;;10.05;74.14
10732;BME280;5417;42.686;23.244;2022-10-16T02:23:03;94985.44;;;10.09;73.63
10732;BME280;5417;42.686;23.244;2022-10-16T02:25:32;94990.75;;;10.08;74.23
10732;BME280;5417;42.686;23.244;2022-10-16T02:28:08;94990.75;;;10.08;73.55
10732;BME280;5417;42.686;23.244;2022-10-16T02:30:41;94996.91;;;10.07;73.72
10732;BME280;5417;42.686;23.244;2022-10-16T02:33:10;94987.53;;;10.04;74.05
10732;BME280;5417;42.686;23.244;2022-10-16T02:35:40;94979.84;;;10.03;73.73
10732;BME280;5417;42.686;23.244;2022-10-16T02:38:09;94984.22;;;10.02;73.73
10732;BME280;5417;42.686;23.244;2022-10-16T02:40:37;94988.69;;;10.00;73.70
10732;BME280;5417;42.686;23.244;2022-10-16T02:43:05;94994.00;;;9.99;73.77
10732;BME280;5417;42.686;23.244;2022-10-16T02:45:33;95003.56;;;9.98;74.08
10732;BME280;5417;42.686;23.244;2022-10-16T02:48:00;95001.91;;;9.97;73.42
10732;BME280;5417;42.686;23.244;2022-10-16T02:50:26;95002.84;;;9.96;73.67
10732;BME280;5417;42.686;23.244;2022-10-16T02:52:53;95009.09;;;9.94;74.07
10732;BME280;5417;42.686;23.244;2022-10-16T02:55:20;95005.78;;;9.92;73.86
10732;BME280;5417;42.686;23.244;2022-10-16T02:57:47;95008.38;;;9.92;73.72
10732;BME280;5417;42.686;23.244;2022-10-16T03:00:15;95002.34;;;9.91;73.95
10732;BME280;5417;42.686;23.244;2022-10-16T03:02:44;95007.66;;;9.90;74.30
10732;BME280;5417;42.686;23.244;2022-10-16T03:05:11;95005.22;;;9.87;74.63
10732;BME280;5417;42.686;23.244;2022-10-16T03:07:37;95006.06;;;9.87;74.00
10732;BME280;5417;42.686;23.244;2022-10-16T03:10:05;95011.38;;;9.86;74.15
10732;BME280;5417;42.686;23.244;2022-10-16T03:12:32;95014.06;;;9.84;73.68
10732;BME280;5417;42.686;23.244;2022-10-16T03:14:59;95010.75;;;9.82;73.84
10732;BME280;5417;42.686;23.244;2022-10-16T03:17:26;95015.22;;;9.80;74.23
10732;BME280;5417;42.686;23.244;2022-10-16T03:19:54;95014.38;;;9.79;74.40
10732;BME280;5417;42.686;23.244;2022-10-16T03:22:21;95009.28;;;9.78;73.88
10732;BME280;5417;42.686;23.244;2022-10-16T03:24:47;95018.13;;;9.75;74.36
10732;BME280;5417;42.686;23.244;2022-10-16T03:27:14;95022.50;;;9.75;74.37
10732;BME280;5417;42.686;23.244;2022-10-16T03:29:41;95026.03;;;9.74;73.99
10732;BME280;5417;42.686;23.244;2022-10-16T03:32:08;95021.88;;;9.71;74.12
10732;BME280;5417;42.686;23.244;2022-10-16T03:34:35;95027.19;;;9.70;74.21
10732;BME280;5417;42.686;23.244;2022-10-16T03:37:04;95026.47;;;9.68;74.06
10732;BME280;5417;42.686;23.244;2022-10-16T03:39:30;95025.63;;;9.67;73.52
10732;BME280;5417;42.686;23.244;2022-10-16T03:41:57;95015.44;;;9.64;74.22
10732;BME280;5417;42.686;23.244;2022-10-16T03:44:24;95017.41;;;9.61;73.84
10732;BME280;5417;42.686;23.244;2022-10-16T03:46:51;95019.91;;;9.62;74.13
10732;BME280;5417;42.686;23.244;2022-10-16T03:49:18;95013.88;;;9.62;73.56
10732;BME280;5417;42.686;23.244;2022-10-16T03:51:45;95014.91;;;9.59;74.10
10732;BME280;5417;42.686;23.244;2022-10-16T03:54:13;95014.09;;;9.59;73.91
10732;BME280;5417;42.686;23.244;2022-10-16T03:56:40;95017.63;;;9.58;73.85
10732;BME280;5417;42.686;23.244;2022-10-16T03:59:06;95014.81;;;9.61;73.61
10732;BME280;5417;42.686;23.244;2022-10-16T04:01:33;95013.97;;;9.60;73.58
10732;BME280;5417;42.686;23.244;2022-10-16T04:04:00;95014.91;;;9.59;73.91
10732;BME280;5417;42.686;23.244;2022-10-16T04:06:27;95015.97;;;9.57;73.67
10732;BME280;5417;42.686;23.244;2022-10-16T04:08:54;95013.56;;;9.54;74.30
10732;BME280;5417;42.686;23.244;2022-10-16T04:11:23;95012.00;;;9.51;74.61
10732;BME280;5417;42.686;23.244;2022-10-16T04:13:49;95021.69;;;9.49;74.56
10732;BME280;5417;42.686;23.244;2022-10-16T04:16:16;95006.28;;;9.46;75.04
10732;BME280;5417;42.686;23.244;2022-10-16T04:18:43;95022.50;;;9.49;75.70
10732;BME280;5417;42.686;23.244;2022-10-16T04:21:10;95021.78;;;9.47;75.18
10732;BME280;5417;42.686;23.244;2022-10-16T04:23:37;95019.28;;;9.46;75.17
10732;BME280;5417;42.686;23.244;2022-10-16T04:26:04;95021.25;;;9.42;73.88
10732;BME280;5417;42.686;23.244;2022-10-16T04:28:32;95021.47;;;9.39;73.49
10732;BME280;5417;42.686;23.244;2022-10-16T04:30:59;95029.16;;;9.41;74.70
10732;BME280;5417;42.686;23.244;2022-10-16T04:33:25;95026.44;;;9.42;74.50
10732;BME280;5417;42.686;23.244;2022-10-16T04:35:59;95025.81;;;9.39;73.94
10732;BME280;5417;42.686;23.244;2022-10-16T04:38:26;95027.69;;;9.37;73.41
10732;BME280;5417;42.686;23.244;2022-10-16T04:40:53;95021.94;;;9.32;73.21
10732;BME280;5417;42.686;23.244;2022-10-16T04:43:21;95032.03;;;9.36;74.62
10732;BME280;5417;42.686;23.244;2022-10-16T04:45:49;95037.06;;;9.39;73.83
10732;BME280;5417;42.686;23.244;2022-10-16T04:48:17;95032.22;;;9.33;73.65
10732;BME280;5417;42.686;23.244;2022-10-16T04:50:44;95030.47;;;9.34;73.90
10732;BME280;5417;42.686;23.244;2022-10-16T04:53:11;95045.78;;;9.38;73.37
10732;BME280;5417;42.686;23.244;2022-10-16T04:55:37;95052.75;;;9.38;73.42
10732;BME280;5417;42.686;23.244;2022-10-16T04:58:04;95058.47;;;9.43;73.11
10732;BME280;5417;42.686;23.244;2022-10-16T05:00:31;95049.94;;;9.66;74.63
10732;BME280;5417;42.686;23.244;2022-10-16T05:03:00;95056.91;;;10.29;74.74
10732;BME280;5417;42.686;23.244;2022-10-16T05:05:27;95046.16;;;11.07;73.40
10732;BME280;5417;42.686;23.244;2022-10-16T05:07:54;95047.13;;;11.87;70.00
10732;BME280;5417;42.686;23.244;2022-10-16T05:10:21;95049.41;;;12.70;64.82
10732;BME280;5417;42.686;23.244;2022-10-16T05:12:48;95043.94;;;13.48;61.31
10732;BME280;5417;42.686;23.244;2022-10-16T05:15:15;95047.34;;;14.32;59.28
10732;BME280;5417;42.686;23.244;2022-10-16T05:17:42;95042.09;;;15.12;56.48
10732;BME280;5417;42.686;23.244;2022-10-16T05:20:10;95043.44;;;15.94;54.30
10732;BME280;5417;42.686;23.244;2022-10-16T05:22:37;95041.44;;;16.71;51.82
10732;BME280;5417;42.686;23.244;2022-10-16T05:25:05;95051.22;;;17.42;49.65
10732;BME280;5417;42.686;23.244;2022-10-16T05:27:31;95043.88;;;18.07;47.20
10732;BME280;5417;42.686;23.244;2022-10-16T05:29:58;95035.13;;;18.58;45.33
10732;BME280;5417;42.686;23.244;2022-10-16T05:32:25;95043.44;;;19.14;44.23
10732;BME280;5417;42.686;23.244;2022-10-16T05:34:52;95040.91;;;19.71;43.77
10732;BME280;5417;42.686;23.244;2022-10-16T05:37:20;95041.03;;;20.26;42.77
10732;BME280;5417;42.686;23.244;2022-10-16T05:39:47;95044.78;;;20.72;40.85
10732;BME280;5417;42.686;23.244;2022-10-16T05:42:14;95049.59;;;21.08;40.14
10732;BME280;5417;42.686;23.244;2022-10-16T05:44:41;95042.34;;;21.41;39.97
10732;BME280;5417;42.686;23.244;2022-10-16T05:47:08;95053.34;;;21.53;38.85
10732;BME280;5417;42.686;23.244;2022-10-16T05:49:36;95042.81;;;21.67;38.78
10732;BME280;5417;42.686;23.244;2022-10-16T05:52:03;95047.94;;;21.92;38.56
10732;BME280;5417;42.686;23.244;2022-10-16T05:54:31;95048.84;;;22.07;37.44
10732;BME280;5417;42.686;23.244;2022-10-16T05:56:58;95051.31;;;22.09;37.93
10732;BME280;5417;42.686;23.244;2022-10-16T05:59:25;95061.84;;;22.17;38.65
10732;BME280;5417;42.686;23.244;2022-10-16T06:01:51;95065.97;;;22.34;38.04
10732;BME280;5417;42.686;23.244;2022-10-16T06:04:18;95064.47;;;22.54;36.88
10732;BME280;5417;42.686;23.244;2022-10-16T06:06:45;95075.25;;;22.38;37.19
10732;BME280;5417;42.686;23.244;2022-10-16T06:09:12;95076.53;;;22.42;37.22
10732;BME280;5417;42.686;23.244;2022-10-16T06:11:40;95077.19;;;22.74;37.66
10732;BME280;5417;42.686;23.244;2022-10-16T06:14:09;95084.91;;;23.13;36.76
10732;BME280;5417;42.686;23.244;2022-10-16T06:16:36;95086.88;;;23.40;35.60
10732;BME280;5417;42.686;23.244;2022-10-16T06:19:04;95080.84;;;23.46;35.75
10732;BME280;5417;42.686;23.244;2022-10-16T06:21:33;95085.97;;;23.48;36.38
10732;BME280;5417;42.686;23.244;2022-10-16T06:24:00;95080.44;;;23.64;35.05
10732;BME280;5417;42.686;23.244;2022-10-16T06:26:28;95089.31;;;23.71;36.09
10732;BME280;5417;42.686;23.244;2022-10-16T06:28:58;95095.84;;;23.39;36.52
10732;BME280;5417;42.686;23.244;2022-10-16T06:31:26;95096.63;;;23.18;35.61
10732;BME280;5417;42.686;23.244;2022-10-16T06:33:56;95095.59;;;22.75;36.29
10732;BME280;5417;42.686;23.244;2022-10-16T06:36:23;95096.59;;;22.59;37.11
10732;BME280;5417;42.686;23.244;2022-10-16T06:38:50;95095.50;;;22.54;36.56
10732;BME280;5417;42.686;23.244;2022-10-16T06:43:47;95102.69;;;22.08;37.16
10732;BME280;5417;42.686;23.244;2022-10-16T06:46:18;95105.16;;;21.78;38.44
10732;BME280;5417;42.686;23.244;2022-10-16T06:48:45;95112.00;;;21.72;38.66
10732;BME280;5417;42.686;23.244;2022-10-16T06:51:14;95121.41;;;21.52;40.21
10732;BME280;5417;42.686;23.244;2022-10-16T06:53:43;95116.84;;;21.30;39.54
10732;BME280;5417;42.686;23.244;2022-10-16T06:56:11;95122.13;;;20.91;39.63
10732;BME280;5417;42.686;23.244;2022-10-16T06:58:38;95130.59;;;20.70;39.96
10732;BME280;5417;42.686;23.244;2022-10-16T07:01:06;95131.63;;;20.53;40.26
10732;BME280;5417;42.686;23.244;2022-10-16T07:03:36;95135.22;;;20.19;40.63
10732;BME280;5417;42.686;23.244;2022-10-16T07:06:04;95135.41;;;20.01;41.36
10732;BME280;5417;42.686;23.244;2022-10-16T07:08:32;95138.16;;;19.75;42.83
10732;BME280;5417;42.686;23.244;2022-10-16T07:11:00;95139.13;;;19.66;43.31
10732;BME280;5417;42.686;23.244;2022-10-16T07:13:27;95137.97;;;19.52;43.66
10732;BME280;5417;42.686;23.244;2022-10-16T07:15:54;95139.06;;;19.42;43.73
10732;BME280;5417;42.686;23.244;2022-10-16T07:18:21;95156.94;;;19.22;44.61
10732;BME280;5417;42.686;23.244;2022-10-16T07:20:53;95146.94;;;19.26;44.94
10732;BME280;5417;42.686;23.244;2022-10-16T07:23:20;95145.31;;;19.41;44.46
10732;BME280;5417;42.686;23.244;2022-10-16T07:25:53;95149.50;;;19.17;44.49
10732;BME280;5417;42.686;23.244;2022-10-16T07:28:20;95145.44;;;18.89;44.11
10732;BME280;5417;42.686;23.244;2022-10-16T07:30:47;95147.41;;;18.87;45.18
10732;BME280;5417;42.686;23.244;2022-10-16T07:33:14;95150.00;;;18.79;45.10
10732;BME280;5417;42.686;23.244;2022-10-16T07:35:47;95155.88;;;18.99;46.74
10732;BME280;5417;42.686;23.244;2022-10-16T07:38:16;95156.84;;;18.98;45.71
10732;BME280;5417;42.686;23.244;2022-10-16T07:40:42;95145.03;;;19.10;45.07
10732;BME280;5417;42.686;23.244;2022-10-16T07:43:09;95151.84;;;18.86;45.67
10732;BME280;5417;42.686;23.244;2022-10-16T07:45:36;95148.06;;;18.63;45.38
10732;BME280;5417;42.686;23.244;2022-10-16T07:48:03;95151.84;;;18.43;46.08
10732;BME280;5417;42.686;23.244;2022-10-16T07:50:30;95154.69;;;18.67;46.68
10732;BME280;5417;42.686;23.244;2022-10-16T07:52:57;95161.25;;;18.89;46.74
10732;BME280;5417;42.686;23.244;2022-10-16T07:55:25;95158.03;;;19.03;46.72
10732;BME280;5417;42.686;23.244;2022-10-16T07:57:52;95164.38;;;18.84;45.37
10732;BME280;5417;42.686;23.244;2022-10-16T08:00:19;95158.31;;;18.92;46.07
10732;BME280;5417;42.686;23.244;2022-10-16T08:02:45;95170.16;;;18.88;45.23
10732;BME280;5417;42.686;23.244;2022-10-16T08:05:12;95163.38;;;18.85;45.54
10732;BME280;5417;42.686;23.244;2022-10-16T08:07:40;95161.00;;;19.08;45.98
10732;BME280;5417;42.686;23.244;2022-10-16T08:10:09;95161.78;;;19.27;46.05
10732;BME280;5417;42.686;23.244;2022-10-16T08:12:43;95161.47;;;19.38;44.50
10732;BME280;5417;42.686;23.244;2022-10-16T08:15:10;95163.72;;;19.24;44.20
10732;BME280;5417;42.686;23.244;2022-10-16T08:17:37;95157.72;;;19.06;45.09
10732;BME280;5417;42.686;23.244;2022-10-16T08:20:05;95162.81;;;19.08;45.31
10732;BME280;5417;42.686;23.244;2022-10-16T08:22:32;95154.72;;;19.01;44.41
10732;BME280;5417;42.686;23.244;2022-10-16T08:24:59;95153.78;;;18.76;45.17
10732;BME280;5417;42.686;23.244;2022-10-16T08:27:30;95156.72;;;18.55;45.88
10732;BME280;5417;42.686;23.244;2022-10-16T08:29:59;95152.72;;;18.69;45.65
10732;BME280;5417;42.686;23.244;2022-10-16T08:32:26;95150.16;;;18.77;46.18
10732;BME280;5417;42.686;23.244;2022-10-16T08:34:53;95154.16;;;18.89;45.06
10732;BME280;5417;42.686;23.244;2022-10-16T08:37:19;95150.38;;;18.66;46.66
10732;BME280;5417;42.686;23.244;2022-10-16T08:39:46;95160.78;;;18.68;46.48
10732;BME280;5417;42.686;23.244;2022-10-16T08:42:36;95157.16;;;18.25;45.44
10732;BME280;5417;42.686;23.244;2022-10-16T08:45:40;95152.56;;;18.27;46.80
10732;BME280;5417;42.686;23.244;2022-10-16T08:48:16;95149.16;;;18.35;46.26
10732;BME280;5417;42.686;23.244;2022-10-16T08:50:45;95154.50;;;18.43;45.61
10732;BME280;5417;42.686;23.244;2022-10-16T08:53:17;95150.69;;;18.63;46.34
10732;BME280;5417;42.686;23.244;2022-10-16T08:55:46;95161.84;;;18.75;45.21
10732;BME280;5417;42.686;23.244;2022-10-16T08:58:16;95166.38;;;18.90;44.31
10732;BME280;5417;42.686;23.244;2022-10-16T09:00:47;95167.78;;;18.77;44.17
10732;BME280;5417;42.686;23.244;2022-10-16T09:03:25;95161.25;;;18.63;43.66
10732;BME280;5417;42.686;23.244;2022-10-16T09:06:10;95166.59;;;18.53;43.52
10732;BME280;5417;42.686;23.244;2022-10-16T09:08:47;95164.03;;;18.62;44.41
10732;BME280;5417;42.686;23.244;2022-10-16T09:11:28;95161.53;;;18.60;44.16
10732;BME280;5417;42.686;23.244;2022-10-16T09:14:06;95161.91;;;18.65;43.66
10732;BME280;5417;42.686;23.244;2022-10-16T09:16:43;95155.69;;;18.48;42.86
10732;BME280;5417;42.686;23.244;2022-10-16T09:19:16;95153.41;;;18.53;43.54
10732;BME280;5417;42.686;23.244;2022-10-16T09:21:47;95144.22;;;18.57;43.34
10732;BME280;5417;42.686;23.244;2022-10-16T09:24:16;95141.97;;;18.63;43.42
10732;BME280;5417;42.686;23.244;2022-10-16T09:26:44;95154.91;;;18.74;43.19
10732;BME280;5417;42.686;23.244;2022-10-16T09:29:12;95159.91;;;18.85;42.16
10732;BME280;5417;42.686;23.244;2022-10-16T09:31:41;95162.56;;;18.85;41.57
10732;BME280;5417;42.686;23.244;2022-10-16T09:34:20;95160.06;;;18.83;42.39
10732;BME280;5417;42.686;23.244;2022-10-16T09:36:48;95158.97;;;18.94;41.03
10732;BME280;5417;42.686;23.244;2022-10-16T09:39:15;95151.56;;;18.98;41.13
10732;BME280;5417;42.686;23.244;2022-10-16T09:41:44;95157.88;;;19.05;41.30
10732;BME280;5417;42.686;23.244;2022-10-16T09:44:20;95154.28;;;19.14;40.99
10732;BME280;5417;42.686;23.244;2022-10-16T09:47:01;95157.50;;;19.00;40.45
10732;BME280;5417;42.686;23.244;2022-10-16T09:49:27;95149.91;;;18.97;40.58
10732;BME280;5417;42.686;23.244;2022-10-16T09:52:03;95149.91;;;18.97;40.93
10732;BME280;5417;42.686;23.244;2022-10-16T09:54:30;95140.03;;;18.99;40.78
10732;BME280;5417;42.686;23.244;2022-10-16T09:57:04;95141.59;;;19.17;41.26
10732;BME280;5417;42.686;23.244;2022-10-16T09:59:32;95129.63;;;19.31;40.13
10732;BME280;5417;42.686;23.244;2022-10-16T10:02:11;95145.16;;;19.42;40.32
10732;BME280;5417;42.686;23.244;2022-10-16T10:04:42;95134.66;;;19.16;39.63
10732;BME280;5417;42.686;23.244;2022-10-16T10:07:17;95145.56;;;19.21;38.82
10732;BME280;5417;42.686;23.244;2022-10-16T10:09:45;95137.50;;;18.89;39.03
10732;BME280;5417;42.686;23.244;2022-10-16T10:12:20;95137.47;;;18.81;39.32
10732;BME280;5417;42.686;23.244;2022-10-16T10:14:48;95135.91;;;18.96;39.02
10732;BME280;5417;42.686;23.244;2022-10-16T10:17:19;95128.88;;;19.13;39.33
10732;BME280;5417;42.686;23.244;2022-10-16T10:19:49;95124.44;;;19.21;38.28
10732;BME280;5417;42.686;23.244;2022-10-16T10:22:24;95130.72;;;19.20;38.30
10732;BME280;5417;42.686;23.244;2022-10-16T10:27:41;95128.56;;;19.24;37.91
10732;BME280;5417;42.686;23.244;2022-10-16T10:30:15;95117.13;;;19.07;38.39
10732;BME280;5417;42.686;23.244;2022-10-16T10:32:54;95116.97;;;19.09;38.36
10732;BME280;5417;42.686;23.244;2022-10-16T10:35:28;95119.66;;;19.17;39.20
10732;BME280;5417;42.686;23.244;2022-10-16T10:38:06;95111.88;;;19.07;40.02
10732;BME280;5417;42.686;23.244;2022-10-16T10:40:50;95109.09;;;19.17;39.35
10732;BME280;5417;42.686;23.244;2022-10-16T10:43:32;95097.72;;;19.24;39.94
10732;BME280;5417;42.686;23.244;2022-10-16T10:46:12;95105.53;;;19.26;40.23
10732;BME280;5417;42.686;23.244;2022-10-16T10:48:54;95098.06;;;19.21;40.04
10732;BME280;5417;42.686;23.244;2022-10-16T10:51:31;95095.81;;;19.43;39.88
10732;BME280;5417;42.686;23.244;2022-10-16T10:54:07;95095.22;;;19.57;39.58
10732;BME280;5417;42.686;23.244;2022-10-16T10:56:48;95089.69;;;19.34;39.83
10732;BME280;5417;42.686;23.244;2022-10-16T10:59:32;95095.84;;;19.01;40.24
10732;BME280;5417;42.686;23.244;2022-10-16T11:02:09;95089.25;;;19.05;38.68
10732;BME280;5417;42.686;23.244;2022-10-16T11:07:33;95088.19;;;18.81;39.82
10732;BME280;5417;42.686;23.244;2022-10-16T11:10:07;95091.81;;;18.80;40.58
10732;BME280;5417;42.686;23.244;2022-10-16T11:12:42;95088.28;;;18.72;39.60
10732;BME280;5417;42.686;23.244;2022-10-16T11:15:14;95082.66;;;18.67;40.22
10732;BME280;5417;42.686;23.244;2022-10-16T11:17:48;95089.31;;;18.53;40.42
10732;BME280;5417;42.686;23.244;2022-10-16T11:20:22;95078.22;;;18.41;41.02
10732;BME280;5417;42.686;23.244;2022-10-16T11:22:53;95081.25;;;18.54;40.10
10732;BME280;5417;42.686;23.244;2022-10-16T11:25:23;95070.50;;;18.48;40.66
10732;BME280;5417;42.686;23.244;2022-10-16T11:27:56;95076.28;;;18.51;40.57
10732;BME280;5417;42.686;23.244;2022-10-16T11:30:26;95074.06;;;18.65;38.62
10732;BME280;5417;42.686;23.244;2022-10-16T11:33:05;95081.91;;;18.74;39.71
10732;BME280;5417;42.686;23.244;2022-10-16T11:35:44;95074.59;;;18.68;39.27
10732;BME280;5417;42.686;23.244;2022-10-16T11:38:18;95073.75;;;18.68;40.26
10732;BME280;5417;42.686;23.244;2022-10-16T11:40:48;95074.59;;;18.68;40.70
10732;BME280;5417;42.686;23.244;2022-10-16T11:43:21;95077.88;;;18.70;41.59
10732;BME280;5417;42.686;23.244;2022-10-16T11:45:51;95074.44;;;18.70;40.94
10732;BME280;5417;42.686;23.244;2022-10-16T11:48:25;95081.16;;;18.64;40.87
10732;BME280;5417;42.686;23.244;2022-10-16T11:50:58;95083.47;;;18.67;41.28
10732;BME280;5417;42.686;23.244;2022-10-16T11:53:41;95075.06;;;18.64;41.20
10732;BME280;5417;42.686;23.244;2022-10-16T11:56:12;95074.59;;;18.68;39.99
10732;BME280;5417;42.686;23.244;2022-10-16T11:58:49;95073.53;;;18.61;39.93
10732;BME280;5417;42.686;23.244;2022-10-16T12:01:24;95072.09;;;18.67;40.66
10732;BME280;5417;42.686;23.244;2022-10-16T12:04:02;95081.25;;;18.54;37.96
10732;BME280;5417;42.686;23.244;2022-10-16T12:06:35;95080.94;;;18.32;40.28
10732;BME280;5417;42.686;23.244;2022-10-16T12:09:04;95080.00;;;18.15;39.84
10732;BME280;5417;42.686;23.244;2022-10-16T12:11:34;95070.06;;;18.09;41.57
10732;BME280;5417;42.686;23.244;2022-10-16T12:14:32;95066.66;;;18.16;40.89
10732;BME280;5417;42.686;23.244;2022-10-16T12:17:03;95066.91;;;18.23;40.08
10732;BME280;5417;42.686;23.244;2022-10-16T12:19:32;95071.50;;;18.21;38.47
10732;BME280;5417;42.686;23.244;2022-10-16T12:22:02;95078.03;;;18.17;38.74
10732;BME280;5417;42.686;23.244;2022-10-16T12:24:34;95079.25;;;18.22;38.59
10732;BME280;5417;42.686;23.244;2022-10-16T12:27:04;95071.56;;;18.11;38.75
10732;BME280;5417;42.686;23.244;2022-10-16T12:29:37;95079.94;;;18.07;40.32
10732;BME280;5417;42.686;23.244;2022-10-16T12:32:18;95070.75;;;18.11;41.12
10732;BME280;5417;42.686;23.244;2022-10-16T12:34:49;95075.47;;;18.25;40.20
10732;BME280;5417;42.686;23.244;2022-10-16T12:37:23;95077.44;;;18.23;40.12
10732;BME280;5417;42.686;23.244;2022-10-16T12:39:51;95064.84;;;18.17;40.20
10732;BME280;5417;42.686;23.244;2022-10-16T12:42:23;95073.91;;;18.14;41.39
10732;BME280;5417;42.686;23.244;2022-10-16T12:44:50;95073.16;;;18.04;41.71
10732;BME280;5417;42.686;23.244;2022-10-16T12:47:36;95074.31;;;18.02;42.63
10732;BME280;5417;42.686;23.244;2022-10-16T12:50:29;95064.91;;;17.99;42.37
10732;BME280;5417;42.686;23.244;2022-10-16T12:52:59;95070.69;;;18.03;41.64
10732;BME280;5417;42.686;23.244;2022-10-16T12:55:26;95076.31;;;18.08;42.19
10732;BME280;5417;42.686;23.244;2022-10-16T12:58:09;95075.56;;;18.15;41.21
10732;BME280;5417;42.686;23.244;2022-10-16T13:00:44;95073.06;;;18.14;40.69
10732;BME280;5417;42.686;23.244;2022-10-16T13:03:54;95083.31;;;18.17;39.64
10732;BME280;5417;42.686;23.244;2022-10-16T13:06:32;95082.94;;;18.12;40.58
10732;BME280;5417;42.686;23.244;2022-10-16T13:09:18;95085.09;;;18.16;40.71
10732;BME280;5417;42.686;23.244;2022-10-16T13:12:07;95079.53;;;18.19;40.91
10732;BME280;5417;42.686;23.244;2022-10-16T13:17:35;95079.00;;;18.16;42.00
10732;BME280;5417;42.686;23.244;2022-10-16T13:20:12;95086.03;;;18.07;42.09
10732;BME280;5417;42.686;23.244;2022-10-16T13:22:49;95084.94;;;17.92;42.49
10732;BME280;5417;42.686;23.244;2022-10-16T13:25:28;95079.22;;;17.96;42.44
10732;BME280;5417;42.686;23.244;2022-10-16T13:28:05;95085.63;;;17.94;42.09
10732;BME280;5417;42.686;23.244;2022-10-16T13:30:37;95087.72;;;17.90;41.56